sensor_id;sensor_type;location;lat;lon;timestamp;P1;durP1;ratioP1;P2;durP2;ratioP2
66609;SDS011;53468;48.276;14.416;2023-05-07T00:03:38;5.10;;;2.33;;
66609;SDS011;53468;48.276;14.416;2023-05-07T00:15:11;3.75;;;2.40;;
66609;SDS011;53468;48.276;14.416;2023-05-07T00:20:51;5.20;;;2.28;;
66609;SDS011;53468;48.276;14.416;2023-05-07T00:26:11;3.20;;;2.03;;
66609;SDS011;53468;48.276;14.416;2023-05-07T00:31:44;3.60;;;2.47;;
66609;SDS011;53468;48.276;14.416;2023-05-07T00:36:56;4.00;;;2.35;;
66609;SDS011;53468;48.276;14.416;2023-05-07T00:42:36;4.80;;;2.28;;
66609;SDS011;53468;48.276;14.416;2023-05-07T00:47:58;5.03;;;2.63;;
66609;SDS011;53468;48.276;14.416;2023-05-07T00:53:22;3.88;;;2.20;;
66609;SDS011;53468;48.276;14.416;2023-05-07T00:59:29;6.25;;;2.35;;
66609;SDS011;53468;48.276;14.416;2023-05-07T01:04:41;4.00;;;2.50;;
66609;SDS011;53468;48.276;14.416;2023-05-07T01:16:27;5.70;;;2.08;;
66609;SDS011;53468;48.276;14.416;2023-05-07T01:21:58;3.88;;;2.00;;
66609;SDS011;53468;48.276;14.416;2023-05-07T01:27:26;3.50;;;1.98;;
66609;SDS011;53468;48.276;14.416;2023-05-07T01:50:11;3.15;;;2.20;;
66609;SDS011;53468;48.276;14.416;2023-05-07T01:55:41;3.72;;;1.92;;
66609;SDS011;53468;48.276;14.416;2023-05-07T02:01:05;3.75;;;2.08;;
66609;SDS011;53468;48.276;14.416;2023-05-07T02:07:04;2.92;;;2.15;;
66609;SDS011;53468;48.276;14.416;2023-05-07T02:12:40;4.75;;;2.30;;
66609;SDS011;53468;48.276;14.416;2023-05-07T02:17:59;3.42;;;2.00;;
66609;SDS011;53468;48.276;14.416;2023-05-07T02:23:33;3.13;;;1.98;;
66609;SDS011;53468;48.276;14.416;2023-05-07T02:29:19;2.92;;;2.03;;
66609;SDS011;53468;48.276;14.416;2023-05-07T02:34:50;4.22;;;2.35;;
66609;SDS011;53468;48.276;14.416;2023-05-07T02:40:48;3.72;;;2.50;;
66609;SDS011;53468;48.276;14.416;2023-05-07T02:46:16;3.20;;;2.05;;
66609;SDS011;53468;48.276;14.416;2023-05-07T02:51:51;4.85;;;2.80;;
66609;SDS011;53468;48.276;14.416;2023-05-07T02:57:25;4.82;;;2.95;;
66609;SDS011;53468;48.276;14.416;2023-05-07T03:03:03;4.78;;;2.78;;
66609;SDS011;53468;48.276;14.416;2023-05-07T03:14:18;5.13;;;3.35;;
66609;SDS011;53468;48.276;14.416;2023-05-07T03:19:55;6.13;;;3.38;;
66609;SDS011;53468;48.276;14.416;2023-05-07T03:25:10;4.03;;;2.42;;
66609;SDS011;53468;48.276;14.416;2023-05-07T03:30:51;5.70;;;3.55;;
66609;SDS011;53468;48.276;14.416;2023-05-07T03:36:01;4.90;;;3.13;;
66609;SDS011;53468;48.276;14.416;2023-05-07T03:41:13;6.45;;;3.88;;
66609;SDS011;53468;48.276;14.416;2023-05-07T03:46:34;6.53;;;4.03;;
66609;SDS011;53468;48.276;14.416;2023-05-07T03:52:09;8.30;;;4.43;;
66609;SDS011;53468;48.276;14.416;2023-05-07T03:57:58;6.05;;;4.68;;
66609;SDS011;53468;48.276;14.416;2023-05-07T04:08:48;8.07;;;3.85;;
66609;SDS011;53468;48.276;14.416;2023-05-07T04:19:42;6.85;;;4.40;;
66609;SDS011;53468;48.276;14.416;2023-05-07T04:24:58;6.03;;;3.97;;
66609;SDS011;53468;48.276;14.416;2023-05-07T04:36:33;7.63;;;4.43;;
66609;SDS011;53468;48.276;14.416;2023-05-07T04:42:17;7.30;;;4.35;;
66609;SDS011;53468;48.276;14.416;2023-05-07T04:48:03;6.40;;;3.83;;
66609;SDS011;53468;48.276;14.416;2023-05-07T05:23:50;7.45;;;4.60;;
66609;SDS011;53468;48.276;14.416;2023-05-07T05:29:32;8.60;;;5.15;;
66609;SDS011;53468;48.276;14.416;2023-05-07T05:34:53;8.10;;;4.97;;
66609;SDS011;53468;48.276;14.416;2023-05-07T05:40:26;7.65;;;5.00;;
66609;SDS011;53468;48.276;14.416;2023-05-07T05:46:08;7.80;;;5.78;;
66609;SDS011;53468;48.276;14.416;2023-05-07T05:52:00;11.05;;;5.78;;
66609;SDS011;53468;48.276;14.416;2023-05-07T05:57:35;8.95;;;4.90;;
66609;SDS011;53468;48.276;14.416;2023-05-07T06:03:28;7.75;;;4.57;;
66609;SDS011;53468;48.276;14.416;2023-05-07T06:08:55;10.80;;;5.90;;
66609;SDS011;53468;48.276;14.416;2023-05-07T06:14:35;5.95;;;3.50;;
66609;SDS011;53468;48.276;14.416;2023-05-07T06:20:10;5.43;;;3.47;;
66609;SDS011;53468;48.276;14.416;2023-05-07T06:32:39;7.07;;;3.38;;
66609;SDS011;53468;48.276;14.416;2023-05-07T06:38:02;6.25;;;3.10;;
66609;SDS011;53468;48.276;14.416;2023-05-07T06:43:51;6.32;;;3.38;;
66609;SDS011;53468;48.276;14.416;2023-05-07T06:55:53;5.68;;;4.28;;
66609;SDS011;53468;48.276;14.416;2023-05-07T07:08:22;5.20;;;3.53;;
66609;SDS011;53468;48.276;14.416;2023-05-07T07:14:18;8.10;;;3.83;;
66609;SDS011;53468;48.276;14.416;2023-05-07T07:25:53;6.07;;;3.80;;
66609;SDS011;53468;48.276;14.416;2023-05-07T07:49:48;5.60;;;3.60;;
66609;SDS011;53468;48.276;14.416;2023-05-07T07:55:12;6.70;;;3.92;;
66609;SDS011;53468;48.276;14.416;2023-05-07T08:12:31;5.33;;;3.60;;
66609;SDS011;53468;48.276;14.416;2023-05-07T08:17:51;6.30;;;3.63;;
66609;SDS011;53468;48.276;14.416;2023-05-07T08:23:25;6.05;;;3.60;;
66609;SDS011;53468;48.276;14.416;2023-05-07T08:29:15;7.20;;;4.22;;
66609;SDS011;53468;48.276;14.416;2023-05-07T08:34:40;7.15;;;4.05;;
66609;SDS011;53468;48.276;14.416;2023-05-07T08:40:21;7.47;;;4.35;;
66609;SDS011;53468;48.276;14.416;2023-05-07T09:09:21;8.90;;;4.88;;
66609;SDS011;53468;48.276;14.416;2023-05-07T09:14:58;9.23;;;5.28;;
66609;SDS011;53468;48.276;14.416;2023-05-07T09:20:56;8.90;;;5.28;;
66609;SDS011;53468;48.276;14.416;2023-05-07T09:26:44;7.22;;;5.03;;
66609;SDS011;53468;48.276;14.416;2023-05-07T09:32:07;7.80;;;5.80;;
66609;SDS011;53468;48.276;14.416;2023-05-07T09:38:09;7.85;;;5.35;;
66609;SDS011;53468;48.276;14.416;2023-05-07T09:43:34;7.53;;;5.97;;
66609;SDS011;53468;48.276;14.416;2023-05-07T09:48:59;8.15;;;5.90;;
66609;SDS011;53468;48.276;14.416;2023-05-07T10:00:35;8.43;;;5.38;;
66609;SDS011;53468;48.276;14.416;2023-05-07T10:05:54;7.35;;;4.88;;
66609;SDS011;53468;48.276;14.416;2023-05-07T10:28:58;6.97;;;5.28;;
66609;SDS011;53468;48.276;14.416;2023-05-07T10:34:07;6.33;;;4.73;;
66609;SDS011;53468;48.276;14.416;2023-05-07T10:39:12;5.55;;;4.45;;
66609;SDS011;53468;48.276;14.416;2023-05-07T10:44:26;6.70;;;4.88;;
66609;SDS011;53468;48.276;14.416;2023-05-07T10:49:29;6.88;;;4.47;;
66609;SDS011;53468;48.276;14.416;2023-05-07T10:54:31;7.97;;;4.63;;
66609;SDS011;53468;48.276;14.416;2023-05-07T10:59:36;7.38;;;4.38;;
66609;SDS011;53468;48.276;14.416;2023-05-07T11:04:42;6.95;;;3.92;;
66609;SDS011;53468;48.276;14.416;2023-05-07T11:09:57;5.63;;;3.90;;
66609;SDS011;53468;48.276;14.416;2023-05-07T11:15:05;5.72;;;4.35;;
66609;SDS011;53468;48.276;14.416;2023-05-07T11:20:09;7.88;;;4.57;;
66609;SDS011;53468;48.276;14.416;2023-05-07T11:25:14;7.15;;;3.97;;
66609;SDS011;53468;48.276;14.416;2023-05-07T11:30:20;7.57;;;3.63;;
66609;SDS011;53468;48.276;14.416;2023-05-07T11:35:23;7.93;;;4.25;;
66609;SDS011;53468;48.276;14.416;2023-05-07T11:40:26;7.03;;;3.95;;
66609;SDS011;53468;48.276;14.416;2023-05-07T11:45:30;5.82;;;4.47;;
66609;SDS011;53468;48.276;14.416;2023-05-07T11:50:34;5.68;;;3.72;;
66609;SDS011;53468;48.276;14.416;2023-05-07T11:55:36;6.93;;;3.75;;
66609;SDS011;53468;48.276;14.416;2023-05-07T12:00:40;6.13;;;4.20;;
66609;SDS011;53468;48.276;14.416;2023-05-07T12:05:50;6.30;;;3.72;;
66609;SDS011;53468;48.276;14.416;2023-05-07T12:10:54;5.85;;;4.18;;
66609;SDS011;53468;48.276;14.416;2023-05-07T12:15:59;6.22;;;4.10;;
66609;SDS011;53468;48.276;14.416;2023-05-07T12:21:04;5.35;;;3.63;;
66609;SDS011;53468;48.276;14.416;2023-05-07T12:26:08;5.10;;;3.25;;
66609;SDS011;53468;48.276;14.416;2023-05-07T12:31:13;4.93;;;3.30;;
66609;SDS011;53468;48.276;14.416;2023-05-07T12:36:17;5.43;;;3.13;;
66609;SDS011;53468;48.276;14.416;2023-05-07T12:41:21;6.25;;;3.30;;
66609;SDS011;53468;48.276;14.416;2023-05-07T12:46:29;4.45;;;3.10;;
66609;SDS011;53468;48.276;14.416;2023-05-07T12:51:34;4.07;;;2.92;;
66609;SDS011;53468;48.276;14.416;2023-05-07T12:56:37;4.32;;;2.65;;
66609;SDS011;53468;48.276;14.416;2023-05-07T13:01:43;3.95;;;2.40;;
66609;SDS011;53468;48.276;14.416;2023-05-07T13:06:46;4.60;;;3.25;;
66609;SDS011;53468;48.276;14.416;2023-05-07T13:11:48;4.20;;;2.90;;
66609;SDS011;53468;48.276;14.416;2023-05-07T13:16:52;3.90;;;3.05;;
66609;SDS011;53468;48.276;14.416;2023-05-07T13:21:54;4.47;;;2.90;;
66609;SDS011;53468;48.276;14.416;2023-05-07T13:26:56;4.38;;;2.60;;
66609;SDS011;53468;48.276;14.416;2023-05-07T13:31:59;5.20;;;2.80;;
66609;SDS011;53468;48.276;14.416;2023-05-07T13:37:01;4.10;;;2.53;;
66609;SDS011;53468;48.276;14.416;2023-05-07T13:42:04;4.57;;;3.25;;
66609;SDS011;53468;48.276;14.416;2023-05-07T13:47:07;7.80;;;3.72;;
66609;SDS011;53468;48.276;14.416;2023-05-07T13:52:09;5.30;;;3.30;;
66609;SDS011;53468;48.276;14.416;2023-05-07T13:57:11;5.85;;;3.53;;
66609;SDS011;53468;48.276;14.416;2023-05-07T14:02:16;4.82;;;3.03;;
66609;SDS011;53468;48.276;14.416;2023-05-07T14:07:18;9.30;;;3.67;;
66609;SDS011;53468;48.276;14.416;2023-05-07T14:12:20;4.70;;;3.28;;
66609;SDS011;53468;48.276;14.416;2023-05-07T14:17:23;6.93;;;4.18;;
66609;SDS011;53468;48.276;14.416;2023-05-07T14:22:27;6.18;;;4.32;;
66609;SDS011;53468;48.276;14.416;2023-05-07T14:27:29;7.50;;;4.68;;
66609;SDS011;53468;48.276;14.416;2023-05-07T14:32:33;3.95;;;3.08;;
66609;SDS011;53468;48.276;14.416;2023-05-07T14:37:35;4.55;;;2.60;;
66609;SDS011;53468;48.276;14.416;2023-05-07T14:42:38;2.75;;;2.05;;
66609;SDS011;53468;48.276;14.416;2023-05-07T14:47:42;3.63;;;2.42;;
66609;SDS011;53468;48.276;14.416;2023-05-07T14:52:44;2.92;;;2.13;;
66609;SDS011;53468;48.276;14.416;2023-05-07T14:57:46;5.97;;;4.22;;
66609;SDS011;53468;48.276;14.416;2023-05-07T15:03:12;7.45;;;4.72;;
66609;SDS011;53468;48.276;14.416;2023-05-07T15:08:18;8.10;;;5.05;;
66609;SDS011;53468;48.276;14.416;2023-05-07T15:13:23;6.72;;;4.53;;
66609;SDS011;53468;48.276;14.416;2023-05-07T15:19:03;7.55;;;4.60;;
66609;SDS011;53468;48.276;14.416;2023-05-07T15:24:10;7.20;;;4.43;;
66609;SDS011;53468;48.276;14.416;2023-05-07T15:29:31;8.55;;;6.22;;
66609;SDS011;53468;48.276;14.416;2023-05-07T15:58:17;9.35;;;5.57;;
66609;SDS011;53468;48.276;14.416;2023-05-07T16:04:21;7.70;;;5.73;;
66609;SDS011;53468;48.276;14.416;2023-05-07T16:10:08;8.30;;;5.35;;
66609;SDS011;53468;48.276;14.416;2023-05-07T16:27:51;10.88;;;6.82;;
66609;SDS011;53468;48.276;14.416;2023-05-07T16:33:35;8.15;;;5.45;;
66609;SDS011;53468;48.276;14.416;2023-05-07T16:57:27;9.85;;;5.22;;
66609;SDS011;53468;48.276;14.416;2023-05-07T17:33:08;9.88;;;6.30;;
66609;SDS011;53468;48.276;14.416;2023-05-07T17:39:08;9.40;;;6.10;;
66609;SDS011;53468;48.276;14.416;2023-05-07T17:50:57;11.20;;;5.38;;
66609;SDS011;53468;48.276;14.416;2023-05-07T17:56:06;10.23;;;5.90;;
66609;SDS011;53468;48.276;14.416;2023-05-07T18:01:15;8.88;;;5.38;;
66609;SDS011;53468;48.276;14.416;2023-05-07T18:11:51;9.20;;;5.80;;
66609;SDS011;53468;48.276;14.416;2023-05-07T18:17:25;9.02;;;5.40;;
66609;SDS011;53468;48.276;14.416;2023-05-07T18:23:05;10.32;;;6.38;;
66609;SDS011;53468;48.276;14.416;2023-05-07T18:28:10;9.98;;;6.07;;
66609;SDS011;53468;48.276;14.416;2023-05-07T18:33:45;12.20;;;6.05;;
